createdAt,value
2022-12-08T00:00:40.132Z,92.41
2022-12-08T00:01:39.015Z,92.51
2022-12-08T00:02:41.836Z,92.61
2022-12-08T00:03:39.970Z,92.61
2022-12-08T00:04:40.358Z,92.72
2022-12-08T00:05:39.441Z,92.93
2022-12-08T00:06:40.194Z,93.02
2022-12-08T00:07:40.171Z,93.02
2022-12-08T00:08:39.462Z,93.02
2022-12-08T00:09:39.957Z,93.02
2022-12-08T00:10:48.878Z,93.02
2022-12-08T00:11:39.891Z,92.93
2022-12-08T00:12:39.989Z,92.93
2022-12-08T00:13:39.919Z,93.02
2022-12-08T00:14:40.618Z,93.02
2022-12-08T00:15:41.131Z,92.82
2022-12-08T00:16:41.411Z,92.72
2022-12-08T00:17:40.446Z,92.82
2022-12-08T00:18:41.375Z,92.82
2022-12-08T00:19:40.567Z,92.82
2022-12-08T00:20:41.208Z,92.82
2022-12-08T00:21:40.685Z,92.82
2022-12-08T00:22:41.681Z,92.97
2022-12-08T00:23:40.807Z,92.97
2022-12-08T00:24:40.917Z,92.86
2022-12-08T00:25:40.987Z,92.86
2022-12-08T00:26:41.134Z,92.86
2022-12-08T00:27:41.140Z,93.07
2022-12-08T00:28:41.339Z,93.13
2022-12-08T00:29:41.263Z,93.18
2022-12-08T00:30:41.373Z,93.13
2022-12-08T00:31:41.613Z,93.13
2022-12-08T00:32:41.548Z,92.97
2022-12-08T00:33:41.563Z,92.97
2022-12-08T00:34:41.716Z,92.82
2022-12-08T00:35:43.444Z,92.82
2022-12-08T00:36:41.896Z,92.76
2022-12-08T00:37:42.000Z,92.82
2022-12-08T00:38:42.040Z,92.93
2022-12-08T00:39:43.345Z,93.07
2022-12-08T00:40:44.157Z,93.33
2022-12-08T00:41:42.349Z,93.23
2022-12-08T00:42:42.259Z,93.13
2022-12-08T00:43:42.350Z,93.07
2022-12-08T00:44:42.473Z,93.18
2022-12-08T00:45:43.130Z,93.28
2022-12-08T00:46:42.779Z,93.18
2022-12-08T00:47:42.698Z,93.18
2022-12-08T00:48:43.321Z,93.28
2022-12-08T00:49:43.038Z,93.28
2022-12-08T00:50:42.835Z,93.38
2022-12-08T00:51:42.960Z,93.38
2022-12-08T00:52:45.918Z,93.49
2022-12-08T00:53:43.164Z,93.49
2022-12-08T00:54:43.990Z,93.49
2022-12-08T00:55:43.265Z,93.49
2022-12-08T00:56:43.565Z,93.59
2022-12-08T00:57:44.292Z,93.70
2022-12-08T00:58:43.592Z,93.70
2022-12-08T00:59:43.599Z,93.63
2022-12-08T01:00:43.872Z,93.63
2022-12-08T01:01:45.323Z,93.84
2022-12-08T01:02:47.664Z,93.84
2022-12-08T01:03:44.068Z,93.95
2022-12-08T01:04:44.146Z,93.90
2022-12-08T01:05:44.258Z,93.95
2022-12-08T01:06:45.695Z,93.84
2022-12-08T01:07:44.324Z,93.84
2022-12-08T01:08:44.264Z,93.84
2022-12-08T01:09:46.115Z,93.74
2022-12-08T01:10:45.827Z,93.74
2022-12-08T01:11:44.694Z,93.74
2022-12-08T01:12:45.203Z,93.63
2022-12-08T01:13:44.886Z,93.74
2022-12-08T01:14:44.828Z,93.63
2022-12-08T01:15:44.838Z,93.63
2022-12-08T01:16:45.085Z,93.63
2022-12-08T01:17:45.155Z,93.63
2022-12-08T01:18:45.580Z,93.63
2022-12-08T01:19:45.887Z,93.63
2022-12-08T01:20:45.587Z,93.53
2022-12-08T01:21:45.388Z,93.53
2022-12-08T01:22:46.409Z,93.53
2022-12-08T01:23:46.214Z,93.32
2022-12-08T01:24:46.321Z,93.32
2022-12-08T01:25:45.785Z,93.43
2022-12-08T01:26:45.837Z,93.43
2022-12-08T01:27:46.050Z,93.43
2022-12-08T01:28:46.009Z,93.38
2022-12-08T01:29:46.021Z,93.38
2022-12-08T01:30:46.308Z,93.38
2022-12-08T01:31:46.282Z,93.38
2022-12-08T01:32:46.579Z,93.49
2022-12-08T01:33:46.273Z,93.38
2022-12-08T01:34:46.490Z,93.38
2022-12-08T01:35:46.508Z,93.38
2022-12-08T01:36:46.520Z,93.28
2022-12-08T01:37:47.033Z,93.28
2022-12-08T01:38:46.722Z,93.18
2022-12-08T01:39:49.310Z,93.18
2022-12-08T01:40:47.770Z,93.28
2022-12-08T01:41:47.684Z,93.18
2022-12-08T01:42:49.013Z,93.18
2022-12-08T01:43:49.828Z,93.18
2022-12-08T01:44:47.778Z,93.18
2022-12-08T01:45:47.208Z,93.18
2022-12-08T01:46:47.382Z,93.18
2022-12-08T01:47:48.169Z,93.07
2022-12-08T01:48:47.714Z,92.97
2022-12-08T01:49:47.719Z,92.97
2022-12-08T01:50:48.751Z,93.07
2022-12-08T01:51:47.649Z,93.07
2022-12-08T01:52:47.852Z,93.07
2022-12-08T01:53:47.920Z,93.07
2022-12-08T01:54:48.617Z,93.18
2022-12-08T01:55:48.793Z,93.28
2022-12-08T01:56:48.179Z,93.23
2022-12-08T01:57:48.798Z,93.13
2022-12-08T01:58:48.396Z,93.13
2022-12-08T01:59:49.195Z,93.13
2022-12-08T02:00:48.420Z,93.13
2022-12-08T02:01:51.179Z,93.13
2022-12-08T02:02:48.664Z,93.23
2022-12-08T02:03:49.655Z,93.23
2022-12-08T02:04:48.714Z,93.23
2022-12-08T02:05:48.735Z,93.23
2022-12-08T02:06:48.844Z,93.33
2022-12-08T02:07:48.893Z,93.23
2022-12-08T02:08:49.064Z,93.44
2022-12-08T02:09:49.764Z,93.54
2022-12-08T02:10:49.281Z,93.54
2022-12-08T02:11:49.334Z,93.54
2022-12-08T02:12:50.297Z,93.33
2022-12-08T02:13:52.782Z,93.23
2022-12-08T02:14:50.104Z,93.23
2022-12-08T02:15:50.191Z,93.33
2022-12-08T02:16:50.790Z,93.23
2022-12-08T02:17:49.738Z,93.23
2022-12-08T02:19:07.972Z,93.23
2022-12-08T02:19:50.773Z,93.13
2022-12-08T02:20:49.990Z,93.13
2022-12-08T02:21:50.099Z,93.23
2022-12-08T02:22:50.157Z,93.23
2022-12-08T02:23:50.595Z,93.33
2022-12-08T02:24:51.043Z,93.23
2022-12-08T02:25:51.769Z,93.23
2022-12-08T02:26:51.763Z,93.13
2022-12-08T02:27:50.647Z,93.13
2022-12-08T02:28:50.971Z,93.13
2022-12-08T02:29:51.292Z,93.13
2022-12-08T02:30:50.710Z,93.02
2022-12-08T02:31:50.783Z,92.93
2022-12-08T02:32:50.793Z,92.82
2022-12-08T02:33:51.005Z,92.82
2022-12-08T02:34:51.007Z,92.93
2022-12-08T02:35:51.120Z,92.93
2022-12-08T02:36:51.731Z,92.82
2022-12-08T02:37:51.329Z,92.82
2022-12-08T02:38:51.448Z,92.72
2022-12-08T02:39:51.656Z,92.61
2022-12-08T02:40:51.609Z,92.61
2022-12-08T02:41:52.285Z,92.61
2022-12-08T02:42:51.759Z,92.61
2022-12-08T02:43:51.935Z,92.61
2022-12-08T02:44:54.879Z,92.61
2022-12-08T02:45:52.003Z,92.61
2022-12-08T02:46:52.013Z,92.61
2022-12-08T02:47:52.024Z,92.61
2022-12-08T02:48:53.356Z,92.61
2022-12-08T02:49:52.861Z,92.57
2022-12-08T02:50:52.237Z,92.57
2022-12-08T02:51:53.278Z,92.57
2022-12-08T02:52:52.465Z,92.57
2022-12-08T02:53:52.572Z,92.47
2022-12-08T02:54:52.786Z,92.47
2022-12-08T02:55:52.833Z,92.57
2022-12-08T02:56:52.797Z,92.68
2022-12-08T02:57:52.967Z,92.68
2022-12-08T02:58:53.624Z,92.78
2022-12-08T02:59:53.024Z,92.78
2022-12-08T03:00:53.130Z,92.68
2022-12-08T03:01:53.257Z,92.68
2022-12-08T03:02:53.279Z,92.68
2022-12-08T03:03:54.541Z,92.57
2022-12-08T03:04:54.185Z,92.36
2022-12-08T03:05:54.144Z,92.26
2022-12-08T03:06:56.653Z,92.26
2022-12-08T03:07:53.709Z,92.26
2022-12-08T03:08:53.753Z,92.16
2022-12-08T03:09:54.773Z,92.05
2022-12-08T03:10:54.026Z,91.95
2022-12-08T03:11:54.026Z,91.85
2022-12-08T03:12:56.694Z,91.85
2022-12-08T03:13:54.797Z,91.95
2022-12-08T03:14:54.352Z,91.95
2022-12-08T03:15:54.339Z,91.80
2022-12-08T03:16:55.098Z,91.91
2022-12-08T03:17:54.531Z,91.70
2022-12-08T03:18:54.589Z,91.60
2022-12-08T03:19:54.690Z,91.60
2022-12-08T03:20:55.241Z,91.60
2022-12-08T03:21:55.632Z,91.60
2022-12-08T03:22:56.305Z,91.39
2022-12-08T03:23:55.784Z,91.49
2022-12-08T03:24:55.483Z,91.39
2022-12-08T03:25:55.243Z,91.28
2022-12-08T03:26:55.765Z,91.18
2022-12-08T03:27:55.401Z,91.18
2022-12-08T03:28:55.305Z,91.18
2022-12-08T03:29:57.278Z,91.39
2022-12-08T03:30:56.295Z,91.60
2022-12-08T03:31:55.728Z,91.60
2022-12-08T03:32:57.142Z,91.60
2022-12-08T03:33:55.748Z,91.60
2022-12-08T03:34:56.743Z,91.70
2022-12-08T03:35:55.966Z,91.49
2022-12-08T03:36:57.217Z,91.39
2022-12-08T03:37:57.275Z,91.18
2022-12-08T03:38:56.264Z,91.18
2022-12-08T03:39:56.723Z,91.18
2022-12-08T03:40:58.117Z,91.28
2022-12-08T03:41:56.380Z,91.49
2022-12-08T03:42:57.720Z,91.39
2022-12-08T03:43:56.635Z,91.60
2022-12-08T03:44:56.708Z,91.60
2022-12-08T03:45:56.817Z,91.60
2022-12-08T03:46:56.722Z,91.80
2022-12-08T03:47:56.935Z,91.80
2022-12-08T03:48:57.044Z,91.91
2022-12-08T03:49:57.256Z,91.91
2022-12-08T03:50:58.184Z,92.01
2022-12-08T03:51:57.234Z,92.01
2022-12-08T03:52:57.340Z,92.11
2022-12-08T03:53:57.389Z,92.01
2022-12-08T03:54:58.211Z,91.91
2022-12-08T03:55:59.139Z,91.91
2022-12-08T03:56:57.521Z,91.91
2022-12-08T03:58:00.722Z,91.80
2022-12-08T03:58:57.723Z,91.70
2022-12-08T03:59:58.756Z,91.70
2022-12-08T04:00:58.762Z,91.80
2022-12-08T04:01:58.092Z,91.70
2022-12-08T04:02:58.161Z,91.80
2022-12-08T04:03:58.782Z,91.80
2022-12-08T04:04:59.199Z,91.80
2022-12-08T04:05:58.489Z,91.70
2022-12-08T04:06:58.425Z,91.70
2022-12-08T04:08:05.229Z,91.70
2022-12-08T04:08:59.227Z,91.80
2022-12-08T04:09:59.234Z,91.80
2022-12-08T04:10:59.580Z,91.80
2022-12-08T04:11:59.763Z,91.91
2022-12-08T04:12:58.951Z,91.80
2022-12-08T04:13:59.772Z,91.70
2022-12-08T04:14:59.093Z,91.70
2022-12-08T04:15:59.773Z,91.60
2022-12-08T04:16:59.200Z,91.49
2022-12-08T04:18:00.580Z,91.18
2022-12-08T04:19:00.320Z,91.18
2022-12-08T04:19:59.439Z,91.18
2022-12-08T04:21:01.580Z,91.18
2022-12-08T04:21:59.625Z,91.18
2022-12-08T04:22:59.779Z,91.08
2022-12-08T04:24:01.628Z,91.08
2022-12-08T04:24:59.841Z,90.97
2022-12-08T04:26:02.010Z,91.08
2022-12-08T04:26:59.961Z,90.97
2022-12-08T04:28:00.038Z,90.87
2022-12-08T04:29:00.387Z,90.97
2022-12-08T04:30:01.040Z,90.97
2022-12-08T04:31:01.404Z,90.97
2022-12-08T04:32:01.023Z,90.97
2022-12-08T04:33:03.284Z,90.97
2022-12-08T04:34:02.778Z,90.87
2022-12-08T04:35:02.223Z,90.77
2022-12-08T04:36:00.742Z,90.87
2022-12-08T04:37:01.788Z,90.77
2022-12-08T04:38:02.726Z,90.66
2022-12-08T04:39:00.918Z,90.56
2022-12-08T04:40:04.996Z,90.45
2022-12-08T04:41:01.622Z,90.56
2022-12-08T04:42:07.766Z,90.66
2022-12-08T04:43:02.254Z,90.66
2022-12-08T04:44:03.266Z,90.77
2022-12-08T04:45:02.242Z,90.66
2022-12-08T04:46:03.272Z,90.56
2022-12-08T04:47:01.766Z,90.66
2022-12-08T04:48:04.114Z,90.66
2022-12-08T04:49:01.757Z,90.56
2022-12-08T04:50:02.248Z,90.66
2022-12-08T04:51:01.900Z,90.66
2022-12-08T04:52:01.989Z,90.56
2022-12-08T04:53:03.263Z,90.66
2022-12-08T04:54:03.884Z,90.35
2022-12-08T04:55:02.204Z,90.25
2022-12-08T04:56:03.245Z,90.45
2022-12-08T04:57:03.358Z,90.56
2022-12-08T04:58:03.359Z,90.56
2022-12-08T04:59:03.374Z,90.66
2022-12-08T05:00:03.869Z,90.87
2022-12-08T05:01:02.729Z,90.87
2022-12-08T05:02:04.786Z,91.18
2022-12-08T05:03:04.253Z,91.08
2022-12-08T05:04:03.701Z,90.87
2022-12-08T05:05:03.724Z,90.87
2022-12-08T05:06:04.225Z,90.97
2022-12-08T05:07:03.306Z,90.87
2022-12-08T05:08:03.380Z,90.97
2022-12-08T05:09:03.382Z,90.87
2022-12-08T05:10:04.438Z,90.87
2022-12-08T05:11:04.159Z,90.77
2022-12-08T05:12:03.651Z,90.77
2022-12-08T05:13:05.193Z,90.66
2022-12-08T05:14:03.668Z,90.66
2022-12-08T05:15:03.787Z,90.66
2022-12-08T05:16:03.822Z,90.66
2022-12-08T05:17:09.363Z,90.66
2022-12-08T05:18:04.717Z,90.52
2022-12-08T05:19:04.786Z,90.35
2022-12-08T05:20:04.602Z,90.25
2022-12-08T05:21:04.225Z,90.20
2022-12-08T05:22:07.301Z,90.31
2022-12-08T05:23:04.541Z,90.35
2022-12-08T05:24:05.674Z,90.14
2022-12-08T05:25:05.275Z,90.14
2022-12-08T05:26:07.228Z,90.04
2022-12-08T05:27:05.699Z,89.94
2022-12-08T05:28:39.553Z,89.94
2022-12-08T05:29:04.890Z,90.20
2022-12-08T05:30:05.307Z,90.04
2022-12-08T05:31:05.570Z,90.04
2022-12-08T05:32:05.951Z,90.14
2022-12-08T05:33:05.326Z,90.25
2022-12-08T05:34:05.229Z,90.35
2022-12-08T05:35:05.546Z,90.35
2022-12-08T05:36:05.551Z,90.35
2022-12-08T05:37:05.583Z,90.35
2022-12-08T05:38:06.691Z,90.56
2022-12-08T05:39:05.673Z,90.77
2022-12-08T05:40:06.774Z,90.87
2022-12-08T05:41:06.000Z,90.77
2022-12-08T05:42:05.908Z,90.87
2022-12-08T05:43:06.424Z,90.97
2022-12-08T05:44:06.020Z,91.08
2022-12-08T05:45:06.129Z,91.08
2022-12-08T05:46:06.818Z,91.28
2022-12-08T05:47:07.475Z,91.08
2022-12-08T05:48:06.560Z,90.97
2022-12-08T05:49:06.562Z,90.97
2022-12-08T05:50:06.904Z,91.08
2022-12-08T05:51:06.580Z,90.97
2022-12-08T05:52:07.414Z,90.97
2022-12-08T05:53:06.852Z,91.08
2022-12-08T05:54:07.009Z,91.08
2022-12-08T05:55:07.222Z,91.18
2022-12-08T05:56:07.135Z,91.08
2022-12-08T05:57:07.751Z,90.97
2022-12-08T05:58:08.112Z,91.08
2022-12-08T05:59:08.273Z,91.28
2022-12-08T06:00:07.658Z,91.28
2022-12-08T06:01:08.177Z,91.08
2022-12-08T06:02:07.545Z,90.87
2022-12-08T06:03:08.809Z,90.97
2022-12-08T06:04:07.797Z,91.08
2022-12-08T06:05:08.835Z,91.49
2022-12-08T06:06:09.601Z,91.70
2022-12-08T06:07:11.791Z,91.70
2022-12-08T06:08:08.429Z,91.70
2022-12-08T06:09:08.240Z,91.60
2022-12-08T06:10:08.152Z,91.60
2022-12-08T06:11:09.632Z,91.60
2022-12-08T06:12:08.467Z,91.60
2022-12-08T06:13:09.808Z,91.60
2022-12-08T06:14:08.689Z,91.60
2022-12-08T06:15:09.146Z,91.49
2022-12-08T06:16:08.799Z,91.49
2022-12-08T06:17:12.080Z,91.28
2022-12-08T06:18:09.578Z,91.18
2022-12-08T06:19:08.805Z,90.77
2022-12-08T06:20:09.043Z,90.56
2022-12-08T06:21:10.065Z,90.66
2022-12-08T06:22:09.254Z,90.66
2022-12-08T06:23:09.350Z,90.66
2022-12-08T06:24:09.266Z,90.66
2022-12-08T06:25:10.232Z,90.77
2022-12-08T06:26:09.482Z,90.87
2022-12-08T06:27:09.489Z,90.66
2022-12-08T06:28:09.802Z,90.66
2022-12-08T06:29:09.708Z,90.56
2022-12-08T06:30:09.721Z,90.56
2022-12-08T06:31:09.826Z,90.45
2022-12-08T06:32:10.130Z,90.56
2022-12-08T06:33:10.350Z,90.45
2022-12-08T06:34:10.971Z,90.56
2022-12-08T06:35:11.275Z,90.56
2022-12-08T06:36:10.209Z,90.77
2022-12-08T06:37:10.453Z,90.66
2022-12-08T06:38:11.304Z,90.66
2022-12-08T06:39:10.599Z,90.35
2022-12-08T06:40:10.602Z,90.35
2022-12-08T06:41:10.612Z,90.35
2022-12-08T06:42:10.717Z,90.25
2022-12-08T06:43:10.928Z,90.35
2022-12-08T06:44:10.833Z,90.56
2022-12-08T06:45:11.044Z,90.56
2022-12-08T06:46:12.314Z,90.45
2022-12-08T06:47:11.154Z,90.45
2022-12-08T06:48:12.547Z,90.35
2022-12-08T06:49:12.097Z,90.35
2022-12-08T06:50:11.280Z,90.25
2022-12-08T06:51:12.333Z,90.14
2022-12-08T06:52:12.312Z,90.14
2022-12-08T06:53:11.681Z,90.35
2022-12-08T06:54:12.515Z,90.35
2022-12-08T06:55:24.675Z,90.14
2022-12-08T06:56:11.728Z,90.14
2022-12-08T06:57:11.820Z,90.14
2022-12-08T06:58:12.834Z,90.35
2022-12-08T06:59:11.949Z,90.29
2022-12-08T07:00:11.958Z,90.25
2022-12-08T07:01:12.250Z,90.25
2022-12-08T07:02:12.736Z,90.19
2022-12-08T07:03:12.371Z,90.50
2022-12-08T07:04:14.107Z,90.70
2022-12-08T07:05:13.228Z,90.70
2022-12-08T07:06:13.020Z,90.81
2022-12-08T07:07:12.516Z,90.70
2022-12-08T07:08:14.300Z,90.70
2022-12-08T07:09:13.248Z,90.60
2022-12-08T07:10:13.661Z,90.70
2022-12-08T07:11:18.091Z,90.70
2022-12-08T07:12:13.675Z,90.70
2022-12-08T07:13:13.170Z,90.70
2022-12-08T07:14:13.284Z,90.81
2022-12-08T07:15:13.292Z,90.60
2022-12-08T07:16:13.336Z,90.91
2022-12-08T07:17:13.516Z,90.91
2022-12-08T07:18:13.625Z,90.81
2022-12-08T07:19:13.723Z,90.60
2022-12-08T07:20:14.633Z,90.70
2022-12-08T07:21:14.793Z,90.70
2022-12-08T07:22:14.664Z,90.60
2022-12-08T07:23:14.058Z,90.70
2022-12-08T07:24:14.045Z,90.81
2022-12-08T07:25:14.075Z,90.81
2022-12-08T07:26:14.076Z,91.02
2022-12-08T07:27:14.314Z,90.91
2022-12-08T07:28:14.789Z,90.91
2022-12-08T07:29:17.556Z,90.81
2022-12-08T07:30:16.030Z,90.91
2022-12-08T07:31:15.315Z,90.70
2022-12-08T07:32:16.043Z,90.70
2022-12-08T07:33:17.095Z,90.70
2022-12-08T07:34:16.158Z,90.70
2022-12-08T07:35:17.262Z,90.50
2022-12-08T07:36:16.684Z,90.70
2022-12-08T07:37:17.023Z,90.81
2022-12-08T07:38:15.773Z,90.70
2022-12-08T07:39:15.271Z,90.81
2022-12-08T07:40:19.046Z,90.91
2022-12-08T07:41:17.662Z,90.97
2022-12-08T07:42:15.416Z,90.97
2022-12-08T07:43:17.264Z,90.97
2022-12-08T07:44:17.183Z,90.97
2022-12-08T07:45:17.175Z,90.97
2022-12-08T07:46:17.629Z,91.18
2022-12-08T07:47:15.858Z,91.22
2022-12-08T07:48:16.792Z,91.43
2022-12-08T07:49:17.012Z,91.53
2022-12-08T07:50:16.677Z,91.43
2022-12-08T07:51:17.196Z,91.33
2022-12-08T07:52:17.249Z,91.33
2022-12-08T07:53:16.345Z,91.22
2022-12-08T07:54:17.647Z,91.22
2022-12-08T07:55:16.627Z,91.22
2022-12-08T07:56:17.162Z,91.12
2022-12-08T07:57:17.563Z,91.18
2022-12-08T07:58:16.750Z,91.08
2022-12-08T07:59:16.975Z,90.87
2022-12-08T08:00:17.486Z,90.66
2022-12-08T08:01:19.735Z,90.77
2022-12-08T08:02:26.042Z,90.66
2022-12-08T08:03:18.115Z,90.45
2022-12-08T08:04:18.960Z,90.66
2022-12-08T08:05:17.899Z,90.87
2022-12-08T08:06:18.220Z,90.77
2022-12-08T08:07:17.651Z,90.77
2022-12-08T08:08:18.728Z,90.77
2022-12-08T08:09:18.154Z,90.87
2022-12-08T08:10:18.463Z,90.77
2022-12-08T08:11:21.259Z,90.87
2022-12-08T08:12:33.519Z,90.66
2022-12-08T08:13:18.723Z,90.66
2022-12-08T08:14:17.867Z,90.87
2022-12-08T08:15:17.989Z,90.87
2022-12-08T08:16:20.812Z,90.97
2022-12-08T08:17:18.908Z,90.87
2022-12-08T08:18:18.192Z,90.97
2022-12-08T08:19:18.311Z,90.97
2022-12-08T08:20:18.329Z,90.97
2022-12-08T08:21:44.444Z,90.77
2022-12-08T08:22:18.534Z,90.87
2022-12-08T08:23:19.466Z,90.87
2022-12-08T08:24:18.767Z,90.66
2022-12-08T08:25:20.309Z,90.56
2022-12-08T08:26:18.985Z,90.56
2022-12-08T08:27:19.800Z,90.25
2022-12-08T08:28:21.134Z,90.20
2022-12-08T08:29:20.006Z,90.00
2022-12-08T08:30:20.991Z,89.79
2022-12-08T08:31:20.720Z,89.48
2022-12-08T08:32:20.143Z,89.48
2022-12-08T08:33:19.396Z,89.48
2022-12-08T08:34:20.667Z,89.38
2022-12-08T08:35:20.272Z,89.17
2022-12-08T08:36:20.580Z,89.17
2022-12-08T08:37:20.658Z,89.07
2022-12-08T08:38:21.011Z,88.96
2022-12-08T08:39:21.144Z,88.86
2022-12-08T08:40:21.669Z,89.07
2022-12-08T08:41:21.054Z,89.17
2022-12-08T08:42:20.050Z,88.96
2022-12-08T08:43:21.049Z,88.86
2022-12-08T08:44:20.227Z,88.61
2022-12-08T08:45:21.149Z,88.55
2022-12-08T08:46:20.366Z,88.61
2022-12-08T08:47:21.172Z,88.40
2022-12-08T08:48:20.461Z,87.99
2022-12-08T08:49:21.184Z,87.57
2022-12-08T08:50:20.574Z,86.65
2022-12-08T08:51:23.049Z,86.44
2022-12-08T08:52:21.614Z,86.65
2022-12-08T08:53:21.622Z,86.44
2022-12-08T08:54:20.908Z,86.44
2022-12-08T08:55:21.530Z,86.40
2022-12-08T08:56:21.145Z,85.99
2022-12-08T08:57:26.084Z,85.78
2022-12-08T08:58:22.071Z,85.78
2022-12-08T08:59:22.694Z,85.88
2022-12-08T09:00:22.217Z,85.99
2022-12-08T09:01:22.250Z,85.68
2022-12-08T09:02:21.645Z,85.88
2022-12-08T09:03:22.654Z,85.47
2022-12-08T09:04:21.811Z,85.36
2022-12-08T09:05:21.882Z,85.05
2022-12-08T09:06:22.671Z,85.26
2022-12-08T09:07:22.150Z,85.36
2022-12-08T09:08:22.088Z,85.36
2022-12-08T09:09:22.345Z,85.26
2022-12-08T09:10:22.222Z,85.68
2022-12-08T09:11:22.254Z,85.68
2022-12-08T09:12:23.054Z,85.78
2022-12-08T09:13:23.629Z,85.16
2022-12-08T09:14:23.067Z,85.26
2022-12-08T09:15:23.512Z,85.57
2022-12-08T09:16:24.186Z,85.78
2022-12-08T09:17:22.712Z,85.57
2022-12-08T09:18:23.025Z,85.47
2022-12-08T09:19:23.081Z,85.68
2022-12-08T09:20:22.976Z,85.78
2022-12-08T09:21:24.059Z,85.68
2022-12-08T09:22:23.644Z,85.68
2022-12-08T09:23:26.679Z,85.88
2022-12-08T09:24:25.213Z,85.68
2022-12-08T09:25:24.097Z,85.88
2022-12-08T09:26:26.147Z,85.99
2022-12-08T09:27:24.152Z,86.09
2022-12-08T09:28:25.036Z,86.40
2022-12-08T09:29:23.710Z,86.40
2022-12-08T09:30:24.642Z,86.40
2022-12-08T09:31:24.731Z,86.19
2022-12-08T09:32:23.861Z,86.29
2022-12-08T09:33:23.951Z,86.50
2022-12-08T09:34:25.689Z,86.46
2022-12-08T09:35:25.291Z,86.36
2022-12-08T09:36:25.195Z,86.36
2022-12-08T09:37:25.294Z,86.25
2022-12-08T09:38:25.771Z,86.36
2022-12-08T09:39:25.218Z,86.25
2022-12-08T09:40:25.033Z,86.05
2022-12-08T09:41:29.323Z,86.15
2022-12-08T09:42:24.750Z,86.36
2022-12-08T09:43:31.651Z,86.25
2022-12-08T09:44:24.943Z,86.05
2022-12-08T09:45:25.519Z,85.84
2022-12-08T09:46:27.344Z,86.05
2022-12-08T09:47:30.609Z,86.15
2022-12-08T09:48:25.264Z,86.15
2022-12-08T09:49:25.291Z,86.05
2022-12-08T09:50:25.548Z,86.15
2022-12-08T09:51:25.316Z,86.36
2022-12-08T09:52:26.223Z,86.05
2022-12-08T09:53:27.411Z,85.84
2022-12-08T09:54:26.533Z,85.63
2022-12-08T09:55:25.821Z,85.53
2022-12-08T09:56:25.725Z,85.84
2022-12-08T09:57:25.834Z,86.15
2022-12-08T09:58:26.016Z,86.15
2022-12-08T09:59:26.495Z,86.15
2022-12-08T10:00:26.163Z,85.94
2022-12-08T10:01:28.151Z,86.36
2022-12-08T10:02:27.199Z,86.67
2022-12-08T10:03:27.144Z,86.29
2022-12-08T10:04:26.494Z,86.19
2022-12-08T10:05:26.656Z,86.71
2022-12-08T10:06:26.510Z,86.91
2022-12-08T10:07:27.636Z,87.43
2022-12-08T10:08:28.383Z,87.43
2022-12-08T10:09:26.660Z,87.12
2022-12-08T10:10:27.456Z,86.60
2022-12-08T10:11:27.583Z,86.60
2022-12-08T10:12:28.232Z,87.33
2022-12-08T10:13:27.700Z,87.54
2022-12-08T10:14:27.674Z,87.54
2022-12-08T10:15:27.206Z,87.43
2022-12-08T10:16:29.988Z,87.54
2022-12-08T10:17:27.343Z,87.64
2022-12-08T10:18:27.408Z,87.85
2022-12-08T10:19:28.515Z,87.85
2022-12-08T10:20:29.046Z,87.74
2022-12-08T10:21:27.610Z,87.85
2022-12-08T10:22:27.817Z,87.85
2022-12-08T10:23:27.766Z,87.54
2022-12-08T10:24:31.150Z,87.43
2022-12-08T10:25:30.526Z,87.12
2022-12-08T10:26:27.988Z,87.12
2022-12-08T10:27:28.671Z,87.18
2022-12-08T10:28:31.160Z,86.88
2022-12-08T10:29:28.326Z,86.88
2022-12-08T10:30:28.410Z,87.18
2022-12-08T10:31:28.553Z,87.29
2022-12-08T10:32:29.137Z,87.08
2022-12-08T10:33:31.111Z,87.60
2022-12-08T10:34:29.666Z,87.49
2022-12-08T10:35:28.974Z,87.08
2022-12-08T10:36:30.220Z,86.98
2022-12-08T10:37:29.107Z,87.18
2022-12-08T10:38:29.182Z,87.08
2022-12-08T10:39:29.697Z,87.39
2022-12-08T10:40:29.501Z,86.98
2022-12-08T10:41:29.998Z,86.63
2022-12-08T10:42:32.258Z,86.52
2022-12-08T10:43:29.469Z,86.73
2022-12-08T10:44:30.742Z,86.21
2022-12-08T10:45:29.465Z,86.42
2022-12-08T10:46:29.905Z,85.91
2022-12-08T10:47:29.750Z,85.55
2022-12-08T10:48:29.846Z,85.55
2022-12-08T10:49:31.489Z,85.52
2022-12-08T10:50:31.123Z,85.10
2022-12-08T10:51:30.083Z,85.06
2022-12-08T10:52:31.021Z,84.65
2022-12-08T10:53:31.621Z,83.83
2022-12-08T10:54:30.343Z,83.99
2022-12-08T10:55:32.056Z,84.09
2022-12-08T10:56:30.527Z,83.48
2022-12-08T10:57:31.147Z,82.96
2022-12-08T10:58:31.563Z,82.40
2022-12-08T10:59:30.655Z,81.37
2022-12-08T11:00:31.982Z,80.65
2022-12-08T11:01:36.488Z,80.24
2022-12-08T11:02:30.955Z,79.79
2022-12-08T11:03:32.626Z,79.48
2022-12-08T11:04:31.500Z,78.55
2022-12-08T11:05:31.239Z,77.94
2022-12-08T11:06:32.537Z,77.97
2022-12-08T11:07:31.334Z,78.08
2022-12-08T11:08:31.554Z,77.87
2022-12-08T11:09:54.470Z,77.66
2022-12-08T11:10:31.335Z,77.97
2022-12-08T11:11:31.546Z,78.59
2022-12-08T11:12:32.214Z,78.59
2022-12-08T11:13:31.755Z,78.08
2022-12-08T11:14:31.772Z,78.49
2022-12-08T11:15:35.047Z,78.38
2022-12-08T11:16:33.671Z,78.18
2022-12-08T11:17:33.123Z,77.91
2022-12-08T11:18:33.566Z,77.39
2022-12-08T11:19:32.201Z,77.80
2022-12-08T11:20:40.131Z,78.21
2022-12-08T11:21:33.178Z,78.73
2022-12-08T11:22:35.033Z,78.21
2022-12-08T11:23:37.053Z,77.80
2022-12-08T11:24:37.370Z,78.11
2022-12-08T11:25:35.242Z,78.21
2022-12-08T11:26:33.082Z,78.52
2022-12-08T11:27:40.485Z,79.35
2022-12-08T11:28:33.604Z,79.25
2022-12-08T11:29:33.511Z,78.83
2022-12-08T11:30:33.516Z,79.04
2022-12-08T11:31:33.102Z,78.31
2022-12-08T11:32:34.170Z,78.01
2022-12-08T11:33:33.153Z,78.01
2022-12-08T11:34:33.572Z,77.91
2022-12-08T11:35:33.446Z,78.21
2022-12-08T11:36:33.585Z,78.31
2022-12-08T11:37:35.372Z,77.28
2022-12-08T11:38:33.569Z,77.08
2022-12-08T11:39:34.701Z,76.25
2022-12-08T11:40:35.631Z,76.39
2022-12-08T11:41:33.926Z,76.90
2022-12-08T11:42:34.004Z,77.42
2022-12-08T11:43:34.043Z,76.90
2022-12-08T11:44:35.073Z,77.01
2022-12-08T11:45:35.226Z,77.49
2022-12-08T11:46:35.064Z,77.08
2022-12-08T11:47:35.197Z,77.18
2022-12-08T11:48:35.306Z,77.28
2022-12-08T11:49:34.595Z,77.80
2022-12-08T11:50:34.633Z,77.70
2022-12-08T11:51:37.151Z,77.91
2022-12-08T11:52:34.790Z,77.18
2022-12-08T11:53:35.034Z,76.98
2022-12-08T11:54:35.054Z,76.25
2022-12-08T11:55:37.421Z,75.95
2022-12-08T11:56:35.255Z,76.25
2022-12-08T11:57:35.488Z,76.67
2022-12-08T11:58:36.338Z,76.87
2022-12-08T11:59:35.493Z,76.90
2022-12-08T12:00:35.590Z,76.90
2022-12-08T12:01:42.241Z,77.11
2022-12-08T12:02:36.680Z,77.01
2022-12-08T12:03:35.983Z,77.11
2022-12-08T12:04:36.514Z,77.11
2022-12-08T12:06:08.800Z,77.53
2022-12-08T12:06:54.356Z,77.63
2022-12-08T12:07:37.801Z,76.90
2022-12-08T12:08:36.642Z,77.11
2022-12-08T12:09:39.146Z,76.81
2022-12-08T12:10:36.955Z,76.53
2022-12-08T12:11:36.157Z,77.36
2022-12-08T12:12:39.915Z,76.84
2022-12-08T12:13:38.539Z,76.94
2022-12-08T12:14:36.376Z,77.15
2022-12-08T12:15:37.050Z,77.46
2022-12-08T12:16:36.529Z,78.08
2022-12-08T12:17:37.537Z,77.46
2022-12-08T12:18:40.511Z,77.25
2022-12-08T12:19:40.632Z,77.25
2022-12-08T12:20:37.554Z,77.98
2022-12-08T12:21:41.150Z,77.04
2022-12-08T12:22:37.684Z,77.46
2022-12-08T12:23:38.077Z,78.18
2022-12-08T12:24:44.231Z,78.39
2022-12-08T12:25:38.605Z,77.36
2022-12-08T12:26:37.300Z,77.67
2022-12-08T12:27:37.546Z,77.32
2022-12-08T12:28:38.991Z,77.22
2022-12-08T12:29:38.175Z,76.81
2022-12-08T12:30:38.539Z,76.50
2022-12-08T12:31:37.726Z,76.70
2022-12-08T12:32:37.764Z,77.32
2022-12-08T12:33:38.645Z,76.81
2022-12-08T12:34:38.019Z,76.60
2022-12-08T12:35:38.230Z,76.60
2022-12-08T12:36:38.029Z,76.60
2022-12-08T12:37:38.142Z,76.67
2022-12-08T12:38:39.179Z,76.35
2022-12-08T12:39:38.378Z,76.04
2022-12-08T12:40:39.083Z,75.84
2022-12-08T12:41:39.022Z,76.35
2022-12-08T12:42:40.008Z,75.84
2022-12-08T12:43:54.724Z,75.43
2022-12-08T12:44:39.453Z,75.53
2022-12-08T12:45:38.954Z,75.84
2022-12-08T12:46:39.159Z,75.63
2022-12-08T12:47:38.925Z,75.84
2022-12-08T12:48:39.020Z,76.04
2022-12-08T12:49:39.158Z,75.84
2022-12-08T12:50:39.971Z,75.74
2022-12-08T12:51:39.361Z,75.53
2022-12-08T12:52:39.375Z,75.01
2022-12-08T12:53:40.704Z,74.60